sensor_id;sensor_type;location;lat;lon;timestamp;P1;durP1;ratioP1;P2;durP2;ratioP2
19495;SDS011;9888;48.606;9.630;2022-12-29T00:02:01;6.30;;;2.07;;
19495;SDS011;9888;48.606;9.630;2022-12-29T00:04:28;7.30;;;1.77;;
19495;SDS011;9888;48.606;9.630;2022-12-29T00:06:55;6.30;;;2.10;;
19495;SDS011;9888;48.606;9.630;2022-12-29T00:09:24;5.90;;;1.60;;
19495;SDS011;9888;48.606;9.630;2022-12-29T00:11:52;7.20;;;1.87;;
19495;SDS011;9888;48.606;9.630;2022-12-29T00:14:19;6.73;;;2.10;;
19495;SDS011;9888;48.606;9.630;2022-12-29T00:17:04;8.47;;;1.90;;
19495;SDS011;9888;48.606;9.630;2022-12-29T00:19:31;6.70;;;2.00;;
19495;SDS011;9888;48.606;9.630;2022-12-29T00:22:17;7.17;;;1.80;;
19495;SDS011;9888;48.606;9.630;2022-12-29T00:25:04;7.03;;;1.80;;
19495;SDS011;9888;48.606;9.630;2022-12-29T00:27:52;9.33;;;2.33;;
19495;SDS011;9888;48.606;9.630;2022-12-29T00:30:37;6.73;;;2.00;;
19495;SDS011;9888;48.606;9.630;2022-12-29T00:33:25;6.20;;;1.80;;
19495;SDS011;9888;48.606;9.630;2022-12-29T00:39:03;8.90;;;2.43;;
19495;SDS011;9888;48.606;9.630;2022-12-29T00:42:07;6.30;;;1.83;;
19495;SDS011;9888;48.606;9.630;2022-12-29T00:44:53;6.90;;;2.20;;
19495;SDS011;9888;48.606;9.630;2022-12-29T00:47:24;6.70;;;1.80;;
19495;SDS011;9888;48.606;9.630;2022-12-29T00:49:51;10.87;;;1.77;;
19495;SDS011;9888;48.606;9.630;2022-12-29T00:52:18;6.67;;;2.10;;
19495;SDS011;9888;48.606;9.630;2022-12-29T00:54:45;6.40;;;1.90;;
19495;SDS011;9888;48.606;9.630;2022-12-29T00:57:13;6.00;;;1.60;;
19495;SDS011;9888;48.606;9.630;2022-12-29T00:59:40;6.47;;;1.60;;
19495;SDS011;9888;48.606;9.630;2022-12-29T01:02:08;5.80;;;1.70;;
19495;SDS011;9888;48.606;9.630;2022-12-29T01:04:36;6.13;;;1.67;;
19495;SDS011;9888;48.606;9.630;2022-12-29T01:07:02;6.07;;;1.60;;
19495;SDS011;9888;48.606;9.630;2022-12-29T01:09:31;6.27;;;1.80;;
19495;SDS011;9888;48.606;9.630;2022-12-29T01:12:16;8.30;;;1.97;;
19495;SDS011;9888;48.606;9.630;2022-12-29T01:15:02;7.13;;;1.77;;
19495;SDS011;9888;48.606;9.630;2022-12-29T01:17:30;8.13;;;1.80;;
19495;SDS011;9888;48.606;9.630;2022-12-29T01:19:56;9.30;;;1.93;;
19495;SDS011;9888;48.606;9.630;2022-12-29T01:22:23;8.47;;;1.97;;
19495;SDS011;9888;48.606;9.630;2022-12-29T01:24:50;6.67;;;1.60;;
19495;SDS011;9888;48.606;9.630;2022-12-29T01:27:17;6.63;;;1.80;;
19495;SDS011;9888;48.606;9.630;2022-12-29T01:29:44;6.30;;;1.60;;
19495;SDS011;9888;48.606;9.630;2022-12-29T01:32:11;8.10;;;1.70;;
19495;SDS011;9888;48.606;9.630;2022-12-29T01:34:38;6.20;;;1.87;;
19495;SDS011;9888;48.606;9.630;2022-12-29T01:37:06;7.90;;;2.10;;
19495;SDS011;9888;48.606;9.630;2022-12-29T01:39:32;7.30;;;1.63;;
19495;SDS011;9888;48.606;9.630;2022-12-29T01:41:59;7.67;;;1.93;;
19495;SDS011;9888;48.606;9.630;2022-12-29T01:47:38;6.20;;;1.57;;
19495;SDS011;9888;48.606;9.630;2022-12-29T01:50:14;7.07;;;2.13;;
19495;SDS011;9888;48.606;9.630;2022-12-29T01:53:05;6.17;;;1.60;;
19495;SDS011;9888;48.606;9.630;2022-12-29T01:55:52;5.80;;;1.80;;
19495;SDS011;9888;48.606;9.630;2022-12-29T01:58:22;7.70;;;1.60;;
19495;SDS011;9888;48.606;9.630;2022-12-29T02:00:55;6.00;;;1.77;;
19495;SDS011;9888;48.606;9.630;2022-12-29T02:03:22;8.73;;;2.07;;
19495;SDS011;9888;48.606;9.630;2022-12-29T02:05:59;6.60;;;1.50;;
19495;SDS011;9888;48.606;9.630;2022-12-29T02:08:40;10.20;;;1.67;;
19495;SDS011;9888;48.606;9.630;2022-12-29T02:11:13;6.17;;;1.77;;
19495;SDS011;9888;48.606;9.630;2022-12-29T02:13:41;5.60;;;1.30;;
19495;SDS011;9888;48.606;9.630;2022-12-29T02:16:17;6.23;;;1.73;;
19495;SDS011;9888;48.606;9.630;2022-12-29T02:19:27;7.17;;;1.80;;
19495;SDS011;9888;48.606;9.630;2022-12-29T02:31:00;5.80;;;1.43;;
19495;SDS011;9888;48.606;9.630;2022-12-29T02:33:56;7.90;;;1.70;;
19495;SDS011;9888;48.606;9.630;2022-12-29T02:37:03;10.90;;;1.43;;
19495;SDS011;9888;48.606;9.630;2022-12-29T02:39:41;6.43;;;1.63;;
19495;SDS011;9888;48.606;9.630;2022-12-29T02:42:35;6.07;;;1.70;;
19495;SDS011;9888;48.606;9.630;2022-12-29T02:45:35;6.67;;;1.40;;
19495;SDS011;9888;48.606;9.630;2022-12-29T02:48:31;6.17;;;1.60;;
19495;SDS011;9888;48.606;9.630;2022-12-29T02:51:15;6.50;;;1.60;;
19495;SDS011;9888;48.606;9.630;2022-12-29T02:53:52;7.80;;;1.70;;
19495;SDS011;9888;48.606;9.630;2022-12-29T02:56:40;7.03;;;1.80;;
19495;SDS011;9888;48.606;9.630;2022-12-29T02:59:08;7.40;;;2.03;;
19495;SDS011;9888;48.606;9.630;2022-12-29T03:01:57;13.63;;;1.83;;
19495;SDS011;9888;48.606;9.630;2022-12-29T03:04:58;6.30;;;1.60;;
19495;SDS011;9888;48.606;9.630;2022-12-29T03:10:53;5.90;;;1.80;;
19495;SDS011;9888;48.606;9.630;2022-12-29T03:16:41;6.87;;;1.97;;
19495;SDS011;9888;48.606;9.630;2022-12-29T03:19:33;5.90;;;1.67;;
19495;SDS011;9888;48.606;9.630;2022-12-29T03:22:05;5.67;;;1.47;;
19495;SDS011;9888;48.606;9.630;2022-12-29T03:24:55;8.87;;;1.77;;
19495;SDS011;9888;48.606;9.630;2022-12-29T03:27:55;9.60;;;1.80;;
19495;SDS011;9888;48.606;9.630;2022-12-29T03:30:29;8.10;;;1.60;;
19495;SDS011;9888;48.606;9.630;2022-12-29T03:32:59;5.40;;;1.50;;
19495;SDS011;9888;48.606;9.630;2022-12-29T03:35:31;6.07;;;1.70;;
19495;SDS011;9888;48.606;9.630;2022-12-29T03:38:08;5.70;;;1.53;;
19495;SDS011;9888;48.606;9.630;2022-12-29T03:40:40;6.10;;;1.50;;
19495;SDS011;9888;48.606;9.630;2022-12-29T03:43:19;5.80;;;1.57;;
19495;SDS011;9888;48.606;9.630;2022-12-29T03:45:46;7.60;;;1.87;;
19495;SDS011;9888;48.606;9.630;2022-12-29T03:48:13;7.70;;;1.80;;
19495;SDS011;9888;48.606;9.630;2022-12-29T03:50:41;6.20;;;1.80;;
19495;SDS011;9888;48.606;9.630;2022-12-29T03:53:08;5.90;;;1.57;;
19495;SDS011;9888;48.606;9.630;2022-12-29T03:55:35;6.60;;;1.77;;
19495;SDS011;9888;48.606;9.630;2022-12-29T03:58:02;7.67;;;2.03;;
19495;SDS011;9888;48.606;9.630;2022-12-29T04:00:29;7.70;;;1.70;;
19495;SDS011;9888;48.606;9.630;2022-12-29T04:02:56;6.53;;;1.80;;
19495;SDS011;9888;48.606;9.630;2022-12-29T04:05:23;5.80;;;1.43;;
19495;SDS011;9888;48.606;9.630;2022-12-29T04:07:50;6.40;;;1.87;;
19495;SDS011;9888;48.606;9.630;2022-12-29T04:10:17;5.80;;;1.50;;
19495;SDS011;9888;48.606;9.630;2022-12-29T04:12:43;6.60;;;1.90;;
19495;SDS011;9888;48.606;9.630;2022-12-29T04:15:12;6.83;;;1.80;;
19495;SDS011;9888;48.606;9.630;2022-12-29T04:17:39;9.53;;;1.80;;
19495;SDS011;9888;48.606;9.630;2022-12-29T04:20:07;6.80;;;2.00;;
19495;SDS011;9888;48.606;9.630;2022-12-29T04:22:58;10.47;;;2.10;;
19495;SDS011;9888;48.606;9.630;2022-12-29T04:25:26;6.00;;;1.70;;
19495;SDS011;9888;48.606;9.630;2022-12-29T04:27:53;6.10;;;1.80;;
19495;SDS011;9888;48.606;9.630;2022-12-29T04:30:20;6.70;;;1.70;;
19495;SDS011;9888;48.606;9.630;2022-12-29T04:32:47;7.13;;;1.90;;
19495;SDS011;9888;48.606;9.630;2022-12-29T04:35:14;6.97;;;1.90;;
19495;SDS011;9888;48.606;9.630;2022-12-29T04:37:42;6.83;;;1.63;;
19495;SDS011;9888;48.606;9.630;2022-12-29T04:40:08;6.50;;;1.70;;
19495;SDS011;9888;48.606;9.630;2022-12-29T04:42:37;8.00;;;1.50;;
19495;SDS011;9888;48.606;9.630;2022-12-29T04:45:05;6.23;;;1.57;;
19495;SDS011;9888;48.606;9.630;2022-12-29T04:47:32;7.20;;;1.70;;
19495;SDS011;9888;48.606;9.630;2022-12-29T04:49:59;8.60;;;1.83;;
19495;SDS011;9888;48.606;9.630;2022-12-29T04:52:26;6.50;;;1.80;;
19495;SDS011;9888;48.606;9.630;2022-12-29T04:54:55;7.10;;;2.13;;
19495;SDS011;9888;48.606;9.630;2022-12-29T04:57:25;6.53;;;1.67;;
19495;SDS011;9888;48.606;9.630;2022-12-29T04:59:53;6.17;;;1.67;;
19495;SDS011;9888;48.606;9.630;2022-12-29T05:02:20;7.07;;;1.80;;
19495;SDS011;9888;48.606;9.630;2022-12-29T05:04:47;6.10;;;1.50;;
19495;SDS011;9888;48.606;9.630;2022-12-29T05:07:14;5.63;;;1.43;;
19495;SDS011;9888;48.606;9.630;2022-12-29T05:09:41;7.00;;;1.83;;
19495;SDS011;9888;48.606;9.630;2022-12-29T05:12:08;7.77;;;1.70;;
19495;SDS011;9888;48.606;9.630;2022-12-29T05:14:35;7.13;;;1.80;;
19495;SDS011;9888;48.606;9.630;2022-12-29T05:17:02;6.67;;;1.80;;
19495;SDS011;9888;48.606;9.630;2022-12-29T05:19:29;8.77;;;2.30;;
19495;SDS011;9888;48.606;9.630;2022-12-29T05:21:56;6.07;;;1.90;;
19495;SDS011;9888;48.606;9.630;2022-12-29T05:24:23;6.23;;;1.80;;
19495;SDS011;9888;48.606;9.630;2022-12-29T05:26:50;6.13;;;1.73;;
19495;SDS011;9888;48.606;9.630;2022-12-29T05:29:17;6.73;;;2.00;;
19495;SDS011;9888;48.606;9.630;2022-12-29T05:31:44;6.33;;;1.87;;
19495;SDS011;9888;48.606;9.630;2022-12-29T05:34:11;10.83;;;1.90;;
19495;SDS011;9888;48.606;9.630;2022-12-29T05:36:39;5.70;;;1.57;;
19495;SDS011;9888;48.606;9.630;2022-12-29T05:39:06;7.10;;;1.50;;
19495;SDS011;9888;48.606;9.630;2022-12-29T05:41:33;6.70;;;1.97;;
19495;SDS011;9888;48.606;9.630;2022-12-29T05:44:01;6.43;;;1.70;;
19495;SDS011;9888;48.606;9.630;2022-12-29T05:46:28;7.10;;;1.60;;
19495;SDS011;9888;48.606;9.630;2022-12-29T05:48:55;6.50;;;2.00;;
19495;SDS011;9888;48.606;9.630;2022-12-29T05:51:22;8.10;;;1.70;;
19495;SDS011;9888;48.606;9.630;2022-12-29T05:53:49;8.13;;;1.80;;
19495;SDS011;9888;48.606;9.630;2022-12-29T05:56:16;8.07;;;1.50;;
19495;SDS011;9888;48.606;9.630;2022-12-29T05:58:43;5.90;;;1.60;;
19495;SDS011;9888;48.606;9.630;2022-12-29T06:01:10;6.77;;;1.33;;
19495;SDS011;9888;48.606;9.630;2022-12-29T06:03:37;8.93;;;1.77;;
19495;SDS011;9888;48.606;9.630;2022-12-29T06:06:04;8.27;;;1.70;;
19495;SDS011;9888;48.606;9.630;2022-12-29T06:08:32;5.73;;;1.53;;
19495;SDS011;9888;48.606;9.630;2022-12-29T06:10:59;6.73;;;1.60;;
19495;SDS011;9888;48.606;9.630;2022-12-29T06:13:26;5.60;;;1.60;;
19495;SDS011;9888;48.606;9.630;2022-12-29T06:15:53;7.70;;;1.80;;
19495;SDS011;9888;48.606;9.630;2022-12-29T06:18:20;6.57;;;1.83;;
19495;SDS011;9888;48.606;9.630;2022-12-29T06:20:47;6.80;;;1.73;;
19495;SDS011;9888;48.606;9.630;2022-12-29T06:23:14;5.90;;;2.00;;
19495;SDS011;9888;48.606;9.630;2022-12-29T06:25:41;5.83;;;1.73;;
19495;SDS011;9888;48.606;9.630;2022-12-29T06:28:09;6.50;;;1.90;;
19495;SDS011;9888;48.606;9.630;2022-12-29T06:30:37;7.37;;;2.10;;
19495;SDS011;9888;48.606;9.630;2022-12-29T06:33:04;6.90;;;2.00;;
19495;SDS011;9888;48.606;9.630;2022-12-29T06:35:33;6.73;;;1.87;;
19495;SDS011;9888;48.606;9.630;2022-12-29T06:38:00;6.60;;;2.00;;
19495;SDS011;9888;48.606;9.630;2022-12-29T06:40:28;6.57;;;1.63;;
19495;SDS011;9888;48.606;9.630;2022-12-29T06:42:56;6.37;;;2.00;;
19495;SDS011;9888;48.606;9.630;2022-12-29T06:45:23;7.20;;;2.17;;
19495;SDS011;9888;48.606;9.630;2022-12-29T06:47:51;6.00;;;1.70;;
19495;SDS011;9888;48.606;9.630;2022-12-29T06:50:18;6.50;;;2.13;;
19495;SDS011;9888;48.606;9.630;2022-12-29T06:52:45;10.57;;;2.90;;
19495;SDS011;9888;48.606;9.630;2022-12-29T06:55:12;8.97;;;2.43;;
19495;SDS011;9888;48.606;9.630;2022-12-29T06:57:45;7.60;;;2.60;;
19495;SDS011;9888;48.606;9.630;2022-12-29T07:00:14;10.90;;;2.30;;
19495;SDS011;9888;48.606;9.630;2022-12-29T07:02:42;8.57;;;2.60;;
19495;SDS011;9888;48.606;9.630;2022-12-29T07:05:09;10.00;;;5.30;;
19495;SDS011;9888;48.606;9.630;2022-12-29T07:07:36;8.47;;;2.03;;
19495;SDS011;9888;48.606;9.630;2022-12-29T07:10:03;15.10;;;3.60;;
19495;SDS011;9888;48.606;9.630;2022-12-29T07:12:30;9.33;;;2.23;;
19495;SDS011;9888;48.606;9.630;2022-12-29T07:14:57;7.93;;;2.60;;
19495;SDS011;9888;48.606;9.630;2022-12-29T07:17:23;7.40;;;2.47;;
19495;SDS011;9888;48.606;9.630;2022-12-29T07:19:50;9.17;;;2.73;;
19495;SDS011;9888;48.606;9.630;2022-12-29T07:22:17;7.70;;;2.50;;
19495;SDS011;9888;48.606;9.630;2022-12-29T07:24:44;7.47;;;2.40;;
19495;SDS011;9888;48.606;9.630;2022-12-29T07:27:13;7.00;;;2.17;;
19495;SDS011;9888;48.606;9.630;2022-12-29T07:29:40;7.53;;;2.00;;
19495;SDS011;9888;48.606;9.630;2022-12-29T07:32:07;9.50;;;2.17;;
19495;SDS011;9888;48.606;9.630;2022-12-29T07:34:34;11.27;;;2.97;;
19495;SDS011;9888;48.606;9.630;2022-12-29T07:37:01;20.70;;;3.57;;
19495;SDS011;9888;48.606;9.630;2022-12-29T07:39:28;30.60;;;4.33;;
19495;SDS011;9888;48.606;9.630;2022-12-29T07:41:55;12.87;;;3.17;;
19495;SDS011;9888;48.606;9.630;2022-12-29T07:44:23;11.50;;;3.00;;
19495;SDS011;9888;48.606;9.630;2022-12-29T07:46:52;9.33;;;2.70;;
19495;SDS011;9888;48.606;9.630;2022-12-29T07:49:19;9.20;;;3.70;;
19495;SDS011;9888;48.606;9.630;2022-12-29T07:51:46;10.90;;;2.97;;
19495;SDS011;9888;48.606;9.630;2022-12-29T07:54:14;9.97;;;2.97;;
19495;SDS011;9888;48.606;9.630;2022-12-29T07:56:43;10.50;;;2.80;;
19495;SDS011;9888;48.606;9.630;2022-12-29T07:59:15;9.00;;;3.33;;
19495;SDS011;9888;48.606;9.630;2022-12-29T08:01:42;12.97;;;7.00;;
19495;SDS011;9888;48.606;9.630;2022-12-29T08:04:09;7.80;;;2.93;;
19495;SDS011;9888;48.606;9.630;2022-12-29T08:06:36;13.00;;;4.30;;
19495;SDS011;9888;48.606;9.630;2022-12-29T08:12:05;8.33;;;2.77;;
19495;SDS011;9888;48.606;9.630;2022-12-29T08:14:34;10.00;;;3.50;;
19495;SDS011;9888;48.606;9.630;2022-12-29T08:17:02;7.70;;;2.50;;
19495;SDS011;9888;48.606;9.630;2022-12-29T08:19:29;6.23;;;1.93;;
19495;SDS011;9888;48.606;9.630;2022-12-29T08:21:56;6.13;;;1.90;;
19495;SDS011;9888;48.606;9.630;2022-12-29T08:24:23;6.20;;;1.90;;
19495;SDS011;9888;48.606;9.630;2022-12-29T08:26:52;7.70;;;2.17;;
19495;SDS011;9888;48.606;9.630;2022-12-29T08:29:19;7.10;;;2.03;;
19495;SDS011;9888;48.606;9.630;2022-12-29T08:31:47;10.97;;;2.10;;
19495;SDS011;9888;48.606;9.630;2022-12-29T08:34:14;8.10;;;1.83;;
19495;SDS011;9888;48.606;9.630;2022-12-29T08:36:42;6.90;;;2.00;;
19495;SDS011;9888;48.606;9.630;2022-12-29T08:39:09;6.90;;;2.20;;
19495;SDS011;9888;48.606;9.630;2022-12-29T08:41:38;6.57;;;1.70;;
19495;SDS011;9888;48.606;9.630;2022-12-29T08:44:05;7.60;;;2.27;;
19495;SDS011;9888;48.606;9.630;2022-12-29T08:46:34;7.63;;;1.77;;
19495;SDS011;9888;48.606;9.630;2022-12-29T08:49:01;15.40;;;2.20;;
19495;SDS011;9888;48.606;9.630;2022-12-29T08:51:28;9.23;;;2.00;;
19495;SDS011;9888;48.606;9.630;2022-12-29T08:53:55;6.30;;;2.17;;
19495;SDS011;9888;48.606;9.630;2022-12-29T08:56:25;7.50;;;2.20;;
19495;SDS011;9888;48.606;9.630;2022-12-29T08:58:53;6.50;;;2.10;;
19495;SDS011;9888;48.606;9.630;2022-12-29T09:01:21;8.13;;;2.13;;
19495;SDS011;9888;48.606;9.630;2022-12-29T09:03:49;6.70;;;2.07;;
19495;SDS011;9888;48.606;9.630;2022-12-29T09:06:16;7.10;;;2.43;;
19495;SDS011;9888;48.606;9.630;2022-12-29T09:11:35;10.27;;;2.67;;
19495;SDS011;9888;48.606;9.630;2022-12-29T09:14:03;8.40;;;2.23;;
19495;SDS011;9888;48.606;9.630;2022-12-29T09:16:30;6.30;;;2.00;;
19495;SDS011;9888;48.606;9.630;2022-12-29T09:18:58;7.80;;;2.30;;
19495;SDS011;9888;48.606;9.630;2022-12-29T09:21:25;9.80;;;2.80;;
19495;SDS011;9888;48.606;9.630;2022-12-29T09:23:54;7.87;;;2.20;;
19495;SDS011;9888;48.606;9.630;2022-12-29T09:26:23;7.07;;;2.40;;
19495;SDS011;9888;48.606;9.630;2022-12-29T09:28:50;9.27;;;2.90;;
19495;SDS011;9888;48.606;9.630;2022-12-29T09:31:18;10.30;;;2.47;;
19495;SDS011;9888;48.606;9.630;2022-12-29T09:33:45;10.33;;;2.10;;
19495;SDS011;9888;48.606;9.630;2022-12-29T09:36:15;7.03;;;2.20;;
19495;SDS011;9888;48.606;9.630;2022-12-29T09:38:42;6.67;;;1.97;;
19495;SDS011;9888;48.606;9.630;2022-12-29T09:44:17;6.50;;;2.10;;
19495;SDS011;9888;48.606;9.630;2022-12-29T09:46:57;8.63;;;1.80;;
19495;SDS011;9888;48.606;9.630;2022-12-29T09:54:53;5.43;;;1.60;;
19495;SDS011;9888;48.606;9.630;2022-12-29T09:58:10;8.87;;;2.80;;
19495;SDS011;9888;48.606;9.630;2022-12-29T10:00:16;6.83;;;1.90;;
19495;SDS011;9888;48.606;9.630;2022-12-29T10:02:50;8.70;;;2.10;;
19495;SDS011;9888;48.606;9.630;2022-12-29T10:05:31;6.60;;;2.10;;
19495;SDS011;9888;48.606;9.630;2022-12-29T10:11:26;8.17;;;2.03;;
19495;SDS011;9888;48.606;9.630;2022-12-29T10:14:12;8.10;;;2.47;;
19495;SDS011;9888;48.606;9.630;2022-12-29T10:19:38;8.70;;;1.90;;
19495;SDS011;9888;48.606;9.630;2022-12-29T10:25:18;6.47;;;2.17;;
19495;SDS011;9888;48.606;9.630;2022-12-29T10:27:49;8.10;;;2.03;;
19495;SDS011;9888;48.606;9.630;2022-12-29T10:30:17;6.20;;;2.00;;
19495;SDS011;9888;48.606;9.630;2022-12-29T10:32:47;6.23;;;2.07;;
19495;SDS011;9888;48.606;9.630;2022-12-29T10:35:22;6.97;;;1.87;;
19495;SDS011;9888;48.606;9.630;2022-12-29T10:37:58;6.50;;;1.93;;
19495;SDS011;9888;48.606;9.630;2022-12-29T10:43:56;6.00;;;1.80;;
19495;SDS011;9888;48.606;9.630;2022-12-29T10:46:35;7.27;;;2.60;;
19495;SDS011;9888;48.606;9.630;2022-12-29T10:49:13;6.63;;;1.97;;
19495;SDS011;9888;48.606;9.630;2022-12-29T10:51:44;6.23;;;1.90;;
19495;SDS011;9888;48.606;9.630;2022-12-29T10:54:31;8.00;;;2.00;;
19495;SDS011;9888;48.606;9.630;2022-12-29T10:57:25;6.40;;;1.97;;
19495;SDS011;9888;48.606;9.630;2022-12-29T11:00:19;6.23;;;1.70;;
19495;SDS011;9888;48.606;9.630;2022-12-29T11:06:07;6.33;;;1.80;;
19495;SDS011;9888;48.606;9.630;2022-12-29T11:08:38;7.90;;;2.10;;
19495;SDS011;9888;48.606;9.630;2022-12-29T11:11:11;9.10;;;2.10;;
19495;SDS011;9888;48.606;9.630;2022-12-29T11:14:02;6.13;;;1.80;;
19495;SDS011;9888;48.606;9.630;2022-12-29T11:17:02;8.13;;;1.97;;
19495;SDS011;9888;48.606;9.630;2022-12-29T11:19:33;9.40;;;1.90;;
19495;SDS011;9888;48.606;9.630;2022-12-29T11:25:18;6.43;;;1.63;;
19495;SDS011;9888;48.606;9.630;2022-12-29T11:27:57;7.80;;;1.87;;
19495;SDS011;9888;48.606;9.630;2022-12-29T11:30:40;6.50;;;2.07;;
19495;SDS011;9888;48.606;9.630;2022-12-29T11:33:09;6.73;;;2.27;;
19495;SDS011;9888;48.606;9.630;2022-12-29T11:35:39;6.53;;;1.80;;
19495;SDS011;9888;48.606;9.630;2022-12-29T11:38:21;9.23;;;2.07;;
19495;SDS011;9888;48.606;9.630;2022-12-29T11:40:55;6.70;;;1.70;;
19495;SDS011;9888;48.606;9.630;2022-12-29T11:43:26;9.40;;;1.83;;
19495;SDS011;9888;48.606;9.630;2022-12-29T11:46:04;8.70;;;1.90;;
19495;SDS011;9888;48.606;9.630;2022-12-29T11:48:38;5.97;;;1.40;;
19495;SDS011;9888;48.606;9.630;2022-12-29T11:51:09;6.70;;;1.67;;
19495;SDS011;9888;48.606;9.630;2022-12-29T11:53:58;6.30;;;1.50;;
19495;SDS011;9888;48.606;9.630;2022-12-29T11:56:34;6.97;;;1.70;;
19495;SDS011;9888;48.606;9.630;2022-12-29T12:02:00;6.40;;;1.77;;
19495;SDS011;9888;48.606;9.630;2022-12-29T12:04:45;6.50;;;2.03;;
19495;SDS011;9888;48.606;9.630;2022-12-29T12:07:19;7.37;;;2.00;;
19495;SDS011;9888;48.606;9.630;2022-12-29T12:10:05;7.20;;;2.23;;
19495;SDS011;9888;48.606;9.630;2022-12-29T12:12:58;8.00;;;2.10;;
19495;SDS011;9888;48.606;9.630;2022-12-29T12:15:47;5.83;;;1.43;;
19495;SDS011;9888;48.606;9.630;2022-12-29T12:18:39;6.63;;;1.70;;
19495;SDS011;9888;48.606;9.630;2022-12-29T12:21:18;5.13;;;1.13;;
19495;SDS011;9888;48.606;9.630;2022-12-29T12:23:56;5.53;;;1.30;;
19495;SDS011;9888;48.606;9.630;2022-12-29T12:26:53;6.63;;;1.40;;
19495;SDS011;9888;48.606;9.630;2022-12-29T12:29:33;5.70;;;1.60;;
19495;SDS011;9888;48.606;9.630;2022-12-29T12:43:45;5.67;;;1.33;;
19495;SDS011;9888;48.606;9.630;2022-12-29T13:00:16;5.77;;;1.30;;
19495;SDS011;9888;48.606;9.630;2022-12-29T13:06:04;6.70;;;1.37;;
19495;SDS011;9888;48.606;9.630;2022-12-29T13:09:02;6.23;;;1.70;;
19495;SDS011;9888;48.606;9.630;2022-12-29T13:17:39;5.23;;;1.23;;
19495;SDS011;9888;48.606;9.630;2022-12-29T13:20:30;5.87;;;1.43;;
19495;SDS011;9888;48.606;9.630;2022-12-29T13:23:02;6.07;;;1.83;;
19495;SDS011;9888;48.606;9.630;2022-12-29T13:25:50;5.30;;;1.20;;
19495;SDS011;9888;48.606;9.630;2022-12-29T13:28:44;7.40;;;1.67;;
19495;SDS011;9888;48.606;9.630;2022-12-29T13:34:37;6.23;;;1.67;;
19495;SDS011;9888;48.606;9.630;2022-12-29T13:37:17;6.70;;;1.57;;
19495;SDS011;9888;48.606;9.630;2022-12-29T13:39:52;7.30;;;1.67;;
19495;SDS011;9888;48.606;9.630;2022-12-29T22:12:31;4.30;;;0.70;;
19495;SDS011;9888;48.606;9.630;2022-12-29T22:15:17;4.30;;;0.70;;
19495;SDS011;9888;48.606;9.630;2022-12-29T22:17:48;4.40;;;0.70;;
19495;SDS011;9888;48.606;9.630;2022-12-29T22:20:19;5.20;;;0.80;;
19495;SDS011;9888;48.606;9.630;2022-12-29T22:23:03;4.43;;;0.70;;
19495;SDS011;9888;48.606;9.630;2022-12-29T22:25:31;4.40;;;0.80;;
19495;SDS011;9888;48.606;9.630;2022-12-29T22:27:58;4.40;;;0.70;;
19495;SDS011;9888;48.606;9.630;2022-12-29T22:30:28;6.10;;;0.80;;
19495;SDS011;9888;48.606;9.630;2022-12-29T22:32:58;4.27;;;0.70;;
19495;SDS011;9888;48.606;9.630;2022-12-29T22:35:26;4.30;;;0.60;;
19495;SDS011;9888;48.606;9.630;2022-12-29T22:37:54;4.30;;;0.70;;
19495;SDS011;9888;48.606;9.630;2022-12-29T22:40:21;4.67;;;0.70;;
19495;SDS011;9888;48.606;9.630;2022-12-29T22:42:49;4.20;;;0.60;;
19495;SDS011;9888;48.606;9.630;2022-12-29T22:45:16;5.23;;;0.80;;
19495;SDS011;9888;48.606;9.630;2022-12-29T22:47:43;4.20;;;0.60;;
19495;SDS011;9888;48.606;9.630;2022-12-29T22:50:10;4.40;;;0.70;;
19495;SDS011;9888;48.606;9.630;2022-12-29T22:52:43;4.40;;;0.70;;
19495;SDS011;9888;48.606;9.630;2022-12-29T22:55:10;4.50;;;0.70;;
19495;SDS011;9888;48.606;9.630;2022-12-29T22:57:37;4.30;;;0.70;;
19495;SDS011;9888;48.606;9.630;2022-12-29T23:00:05;5.60;;;0.70;;
19495;SDS011;9888;48.606;9.630;2022-12-29T23:02:33;4.40;;;0.70;;
19495;SDS011;9888;48.606;9.630;2022-12-29T23:05:00;4.40;;;0.70;;
19495;SDS011;9888;48.606;9.630;2022-12-29T23:07:27;4.40;;;0.67;;
19495;SDS011;9888;48.606;9.630;2022-12-29T23:09:55;4.30;;;0.60;;
19495;SDS011;9888;48.606;9.630;2022-12-29T23:12:22;4.30;;;0.70;;
19495;SDS011;9888;48.606;9.630;2022-12-29T23:14:49;4.30;;;0.70;;
19495;SDS011;9888;48.606;9.630;2022-12-29T23:17:17;4.30;;;0.70;;
19495;SDS011;9888;48.606;9.630;2022-12-29T23:19:43;4.30;;;0.70;;
19495;SDS011;9888;48.606;9.630;2022-12-29T23:22:10;4.23;;;0.70;;
19495;SDS011;9888;48.606;9.630;2022-12-29T23:24:38;4.50;;;0.70;;
19495;SDS011;9888;48.606;9.630;2022-12-29T23:27:05;5.00;;;0.80;;
19495;SDS011;9888;48.606;9.630;2022-12-29T23:29:32;4.27;;;0.60;;
19495;SDS011;9888;48.606;9.630;2022-12-29T23:31:59;4.50;;;0.70;;
19495;SDS011;9888;48.606;9.630;2022-12-29T23:34:26;4.87;;;0.80;;
19495;SDS011;9888;48.606;9.630;2022-12-29T23:36:53;4.50;;;0.70;;
19495;SDS011;9888;48.606;9.630;2022-12-29T23:39:21;4.50;;;0.70;;
19495;SDS011;9888;48.606;9.630;2022-12-29T23:41:49;4.60;;;0.70;;
19495;SDS011;9888;48.606;9.630;2022-12-29T23:44:19;4.23;;;0.70;;
19495;SDS011;9888;48.606;9.630;2022-12-29T23:46:47;4.30;;;0.70;;
19495;SDS011;9888;48.606;9.630;2022-12-29T23:49:17;4.50;;;0.73;;
19495;SDS011;9888;48.606;9.630;2022-12-29T23:51:45;4.47;;;0.67;;
19495;SDS011;9888;48.606;9.630;2022-12-29T23:54:11;4.17;;;0.60;;
19495;SDS011;9888;48.606;9.630;2022-12-29T23:56:39;4.23;;;0.60;;
19495;SDS011;9888;48.606;9.630;2022-12-29T23:59:06;4.27;;;0.73;;
